createdAt,value
2022-11-28T00:01:26.284Z,21.00
2022-11-28T00:03:53.123Z,19.80
2022-11-28T00:06:20.827Z,19.38
2022-11-28T00:08:47.694Z,20.80
2022-11-28T00:11:16.503Z,19.02
2022-11-28T00:13:44.293Z,19.40
2022-11-28T00:16:16.090Z,18.58
2022-11-28T00:18:43.113Z,17.88
2022-11-28T00:21:12.734Z,18.13
2022-11-28T00:23:39.559Z,19.05
2022-11-28T00:26:12.888Z,18.45
2022-11-28T00:28:39.457Z,18.95
2022-11-28T00:31:06.462Z,18.13
2022-11-28T00:33:33.764Z,18.77
2022-11-28T00:36:02.468Z,18.23
2022-11-28T00:38:29.914Z,18.55
2022-11-28T00:41:04.432Z,19.38
2022-11-28T00:43:31.401Z,19.85
2022-11-28T00:45:57.876Z,18.50
2022-11-28T00:48:25.676Z,18.13
2022-11-28T00:50:53.021Z,17.10
2022-11-28T00:53:19.869Z,18.13
2022-11-28T00:55:46.547Z,18.38
2022-11-28T00:58:13.358Z,17.58
2022-11-28T01:00:39.998Z,18.70
2022-11-28T01:03:06.596Z,18.33
2022-11-28T01:05:33.166Z,18.92
2022-11-28T01:07:59.781Z,17.85
2022-11-28T01:10:27.233Z,17.90
2022-11-28T01:12:53.965Z,17.20
2022-11-28T01:15:20.529Z,18.05
2022-11-28T01:17:47.066Z,17.13
2022-11-28T01:20:13.944Z,16.90
2022-11-28T01:22:40.557Z,17.98
2022-11-28T01:25:07.490Z,17.98
2022-11-28T01:27:34.048Z,16.85
2022-11-28T01:30:00.573Z,17.70
2022-11-28T01:32:27.270Z,18.00
2022-11-28T01:34:53.785Z,19.73
2022-11-28T01:37:20.319Z,18.45
2022-11-28T01:39:46.931Z,19.10
2022-11-28T01:42:19.181Z,20.02
2022-11-28T01:44:48.810Z,19.40
2022-11-28T01:47:29.482Z,19.13
2022-11-28T01:49:56.367Z,19.15
2022-11-28T01:52:23.844Z,17.83
2022-11-28T01:54:59.806Z,20.17
2022-11-28T01:57:28.003Z,19.60
2022-11-28T02:00:05.498Z,19.13
2022-11-28T02:02:48.388Z,19.75
2022-11-28T02:05:16.929Z,18.92
2022-11-28T02:07:44.563Z,19.75
2022-11-28T02:10:15.150Z,19.08
2022-11-28T02:12:54.412Z,19.17
2022-11-28T02:15:43.340Z,20.92
2022-11-28T02:18:54.450Z,18.92
2022-11-28T02:21:50.702Z,19.27
2022-11-28T02:24:31.772Z,18.40
2022-11-28T02:27:04.482Z,19.80
2022-11-28T02:29:46.321Z,19.67
2022-11-28T02:32:22.216Z,17.73
2022-11-28T02:35:20.471Z,19.05
2022-11-28T02:37:59.033Z,18.25
2022-11-28T02:40:34.706Z,18.58
2022-11-28T02:43:10.341Z,17.98
2022-11-28T02:46:20.504Z,18.45
2022-11-28T02:48:55.023Z,18.85
2022-11-28T02:51:42.074Z,19.55
2022-11-28T02:54:12.068Z,18.88
2022-11-28T02:56:39.083Z,19.40
2022-11-28T02:59:47.027Z,19.48
2022-11-28T03:02:27.733Z,19.10
2022-11-28T03:05:13.154Z,19.30
2022-11-28T03:07:54.966Z,19.67
2022-11-28T03:10:40.662Z,19.48
2022-11-28T03:13:22.886Z,21.88
2022-11-28T03:16:11.321Z,19.40
2022-11-28T03:19:13.955Z,19.60
2022-11-28T03:21:47.292Z,20.42
2022-11-28T03:24:25.640Z,21.30
2022-11-28T03:27:06.176Z,20.13
2022-11-28T03:29:46.519Z,19.98
2022-11-28T03:32:22.381Z,19.33
2022-11-28T03:34:56.051Z,20.17
2022-11-28T03:40:00.159Z,19.17
2022-11-28T03:42:31.627Z,20.98
2022-11-28T03:45:13.118Z,20.27
2022-11-28T03:47:44.918Z,20.15
2022-11-28T03:50:18.041Z,20.08
2022-11-28T03:52:52.990Z,20.88
2022-11-28T03:55:34.948Z,21.08
2022-11-28T03:58:12.443Z,19.65
2022-11-28T04:00:51.443Z,20.52
2022-11-28T04:03:30.660Z,20.48
2022-11-28T04:06:05.550Z,20.90
2022-11-28T04:08:56.474Z,20.02
2022-11-28T04:11:29.001Z,20.08
2022-11-28T04:14:05.987Z,20.00
2022-11-28T04:17:09.666Z,21.35
2022-11-28T04:19:58.544Z,19.30
2022-11-28T04:22:30.832Z,20.75
2022-11-28T04:25:13.878Z,21.35
2022-11-28T04:28:14.620Z,21.10
2022-11-28T04:30:43.421Z,19.25
2022-11-28T04:33:13.540Z,19.10
2022-11-28T04:35:45.380Z,20.15
2022-11-28T04:38:13.114Z,20.30
2022-11-28T04:40:48.396Z,20.00
2022-11-28T04:43:28.428Z,19.08
2022-11-28T04:46:01.523Z,19.98
2022-11-28T04:48:33.967Z,20.48
2022-11-28T04:51:22.620Z,21.37
2022-11-28T04:54:04.682Z,20.70
2022-11-28T04:56:37.723Z,20.95
2022-11-28T04:59:06.439Z,20.20
2022-11-28T05:01:34.683Z,21.13
2022-11-28T05:05:12.073Z,21.85
2022-11-28T05:08:45.886Z,20.20
2022-11-28T05:14:53.227Z,21.33
2022-11-28T05:17:22.839Z,19.98
2022-11-28T05:19:56.784Z,21.35
2022-11-28T05:22:23.600Z,21.00
2022-11-28T05:24:50.465Z,21.38
2022-11-28T05:27:17.543Z,21.27
2022-11-28T05:29:51.918Z,21.33
2022-11-28T05:32:19.090Z,21.00
2022-11-28T05:34:45.641Z,21.33
2022-11-28T05:37:12.218Z,21.92
2022-11-28T05:39:38.945Z,20.08
2022-11-28T05:42:07.175Z,20.85
2022-11-28T05:44:33.923Z,20.98
2022-11-28T05:47:00.481Z,19.48
2022-11-28T05:49:28.787Z,21.13
2022-11-28T05:51:55.340Z,20.60
2022-11-28T05:54:21.953Z,20.77
2022-11-28T05:56:48.609Z,21.15
2022-11-28T05:59:15.123Z,21.40
2022-11-28T06:01:41.749Z,21.65
2022-11-28T06:04:08.465Z,25.23
2022-11-28T06:06:35.871Z,21.17
2022-11-28T06:09:02.673Z,21.27
2022-11-28T06:11:31.517Z,21.33
2022-11-28T06:13:58.120Z,20.85
2022-11-28T06:16:30.009Z,22.08
2022-11-28T06:18:58.950Z,21.10
2022-11-28T06:21:26.232Z,20.38
2022-11-28T06:23:53.549Z,21.15
2022-11-28T06:26:23.047Z,21.13
2022-11-28T06:28:50.292Z,21.58
2022-11-28T06:31:22.732Z,27.50
2022-11-28T06:33:49.952Z,21.73
2022-11-28T06:36:18.279Z,21.45
2022-11-28T06:38:44.845Z,19.08
2022-11-28T06:41:14.226Z,21.35
2022-11-28T06:43:41.261Z,19.63
2022-11-28T06:46:20.317Z,21.27
2022-11-28T06:48:48.491Z,21.83
2022-11-28T06:51:15.247Z,24.95
2022-11-28T06:53:42.110Z,23.27
2022-11-28T06:56:14.619Z,22.80
2022-11-28T06:58:42.500Z,22.45
2022-11-28T07:01:12.334Z,22.30
2022-11-28T07:03:39.591Z,23.02
2022-11-28T07:06:07.419Z,21.25
2022-11-28T07:08:34.494Z,21.33
2022-11-28T07:11:13.717Z,20.88
2022-11-28T07:13:41.286Z,20.60
2022-11-28T07:16:08.738Z,20.17
2022-11-28T07:18:35.314Z,21.38
2022-11-28T07:21:01.959Z,20.50
2022-11-28T07:23:28.445Z,22.27
2022-11-28T07:26:02.722Z,21.02
2022-11-28T07:28:31.295Z,20.30
2022-11-28T07:31:00.479Z,20.90
2022-11-28T07:33:27.144Z,20.33
2022-11-28T07:35:53.656Z,20.33
2022-11-28T07:38:20.148Z,20.50
2022-11-28T07:40:46.646Z,21.13
2022-11-28T07:43:13.176Z,21.75
2022-11-28T07:45:59.548Z,22.23
2022-11-28T07:48:26.497Z,21.77
2022-11-28T07:50:53.021Z,20.98
2022-11-28T07:53:19.725Z,20.38
2022-11-28T07:55:46.282Z,20.60
2022-11-28T07:58:12.791Z,20.08
2022-11-28T08:00:39.894Z,20.48
2022-11-28T08:03:06.589Z,20.10
2022-11-28T08:05:33.698Z,20.48
2022-11-28T08:08:00.336Z,20.40
2022-11-28T08:10:26.945Z,20.23
2022-11-28T08:12:53.464Z,21.63
2022-11-28T08:15:20.349Z,20.60
2022-11-28T08:17:46.969Z,20.50
2022-11-28T08:20:13.633Z,20.63
2022-11-28T08:22:40.533Z,20.33
2022-11-28T08:25:07.303Z,21.00
2022-11-28T08:27:33.950Z,20.63
2022-11-28T08:30:00.459Z,20.58
2022-11-28T08:32:29.444Z,20.85
2022-11-28T08:34:55.946Z,21.45
2022-11-28T08:37:22.481Z,20.98
2022-11-28T08:39:48.983Z,20.58
2022-11-28T08:42:15.488Z,21.27
2022-11-28T08:44:41.990Z,20.63
2022-11-28T08:47:08.835Z,20.48
2022-11-28T08:49:37.127Z,19.98
2022-11-28T08:52:04.462Z,19.60
2022-11-28T08:54:31.224Z,20.42
2022-11-28T08:56:58.970Z,20.25
2022-11-28T08:59:25.734Z,20.85
2022-11-28T09:01:53.739Z,20.58
2022-11-28T09:04:21.275Z,20.83
2022-11-28T09:06:47.919Z,19.67
2022-11-28T09:09:14.433Z,19.02
2022-11-28T09:11:41.698Z,19.10
2022-11-28T09:14:09.060Z,18.65
2022-11-28T09:16:35.697Z,20.20
2022-11-28T09:19:02.238Z,21.55
2022-11-28T09:21:28.806Z,20.42
2022-11-28T09:23:56.330Z,19.88
2022-11-28T09:26:25.162Z,19.73
2022-11-28T09:28:52.465Z,25.23
2022-11-28T09:31:19.796Z,19.23
2022-11-28T09:33:47.140Z,19.85
2022-11-28T09:36:16.874Z,18.45
2022-11-28T09:38:44.002Z,19.08
2022-11-28T09:41:36.591Z,19.02
2022-11-28T09:44:27.472Z,20.13
2022-11-28T09:46:59.205Z,19.85
2022-11-28T09:49:40.384Z,22.55
2022-11-28T09:52:38.703Z,18.45
2022-11-28T09:55:14.434Z,18.75
2022-11-28T09:57:45.943Z,18.60
2022-11-28T10:00:21.516Z,19.50
2022-11-28T10:03:30.483Z,19.38
2022-11-28T10:06:15.485Z,18.27
2022-11-28T10:09:02.253Z,19.08
2022-11-28T10:11:44.216Z,18.33
2022-11-28T10:14:13.855Z,18.08
2022-11-28T10:17:19.692Z,19.08
2022-11-28T10:19:54.694Z,18.55
2022-11-28T10:22:46.574Z,18.17
2022-11-28T10:25:16.135Z,19.27
2022-11-28T10:27:42.829Z,18.77
2022-11-28T10:30:21.879Z,18.80
2022-11-28T10:33:00.618Z,18.50
2022-11-28T10:35:44.002Z,18.73
2022-11-28T10:38:15.537Z,27.00
2022-11-28T10:41:04.801Z,39.10
2022-11-28T10:44:05.048Z,26.30
2022-11-28T10:46:43.660Z,20.05
2022-11-28T10:49:50.317Z,19.58
2022-11-28T10:52:34.730Z,19.05
2022-11-28T10:55:01.202Z,19.52
2022-11-28T11:00:45.698Z,19.73
2022-11-28T11:03:17.358Z,18.60
2022-11-28T11:05:44.157Z,22.40
2022-11-28T11:08:33.714Z,22.58
2022-11-28T11:11:15.207Z,20.77
2022-11-28T11:14:01.459Z,18.10
2022-11-28T11:16:49.137Z,24.60
2022-11-28T11:19:36.325Z,18.63
2022-11-28T11:22:28.539Z,17.55
2022-11-28T11:25:15.645Z,21.17
2022-11-28T11:28:04.473Z,35.78
2022-11-28T11:30:38.722Z,21.70
2022-11-28T11:33:12.360Z,18.55
2022-11-28T11:35:45.293Z,17.20
2022-11-28T11:38:30.316Z,16.55
2022-11-28T11:41:20.469Z,17.67
2022-11-28T11:43:47.235Z,17.35
2022-11-28T11:46:15.630Z,17.27
2022-11-28T11:48:46.752Z,17.33
2022-11-28T11:51:24.019Z,16.25
2022-11-28T11:54:12.580Z,16.85
2022-11-28T11:56:44.130Z,15.95
2022-11-28T11:59:18.492Z,15.80
2022-11-28T12:01:47.005Z,16.85
2022-11-28T12:04:44.002Z,16.30
2022-11-28T12:07:18.461Z,16.63
2022-11-28T12:09:48.199Z,18.48
2022-11-28T12:12:22.234Z,18.25
2022-11-28T12:14:50.367Z,19.25
2022-11-28T12:17:48.840Z,19.70
2022-11-28T12:20:42.749Z,17.55
2022-11-28T12:23:53.955Z,18.00
2022-11-28T12:26:51.819Z,17.10
2022-11-28T12:29:27.781Z,17.65
2022-11-28T12:32:03.127Z,16.27
2022-11-28T12:34:57.523Z,16.42
2022-11-28T12:40:55.320Z,17.00
2022-11-28T12:43:34.411Z,16.45
2022-11-28T12:46:10.236Z,17.00
2022-11-28T12:49:10.267Z,16.60
2022-11-28T12:51:42.507Z,16.35
2022-11-28T12:54:30.602Z,15.55
2022-11-28T12:57:21.383Z,16.30
2022-11-28T13:00:14.805Z,16.75
2022-11-28T13:03:19.133Z,16.48
2022-11-28T13:06:11.967Z,17.38
2022-11-28T13:08:52.075Z,16.17
2022-11-28T13:11:56.237Z,16.25
2022-11-28T13:14:54.388Z,16.63
2022-11-28T13:17:41.173Z,25.50
2022-11-28T13:20:18.792Z,24.27
2022-11-28T13:23:00.764Z,20.70
2022-11-28T13:25:33.348Z,18.67
2022-11-28T13:31:42.687Z,15.35
2022-11-28T13:34:16.184Z,15.25
2022-11-28T13:39:46.250Z,18.67
2022-11-28T13:43:02.889Z,14.98
2022-11-28T13:45:34.327Z,14.80
2022-11-28T13:51:33.434Z,16.58
2022-11-28T13:54:21.562Z,14.98
2022-11-28T13:57:05.055Z,15.00
2022-11-28T13:59:33.253Z,20.85
2022-11-28T14:02:02.200Z,37.13
2022-11-28T14:04:32.139Z,16.23
2022-11-28T14:07:06.734Z,15.10
2022-11-28T14:09:47.542Z,15.55
2022-11-28T14:12:35.743Z,15.88
2022-11-28T14:15:02.332Z,21.75
2022-11-28T14:17:40.650Z,14.98
2022-11-28T14:20:45.000Z,14.25
2022-11-28T14:23:18.235Z,15.43
2022-11-28T14:25:48.332Z,17.23
2022-11-28T14:28:36.853Z,16.05
2022-11-28T14:31:24.499Z,14.40
2022-11-28T14:33:57.598Z,14.32
2022-11-28T14:36:30.504Z,15.10
2022-11-28T14:39:10.716Z,15.45
2022-11-28T14:42:05.275Z,14.55
2022-11-28T14:44:47.207Z,14.98
2022-11-28T14:47:18.430Z,15.55
2022-11-28T14:49:44.964Z,16.45
2022-11-28T14:52:38.326Z,17.25
2022-11-28T14:55:12.232Z,17.13
2022-11-28T14:57:56.773Z,17.40
2022-11-28T15:00:38.337Z,16.45
2022-11-28T15:03:47.583Z,17.02
2022-11-28T15:06:20.743Z,16.95
2022-11-28T15:08:56.351Z,16.80
2022-11-28T15:11:37.676Z,16.60
2022-11-28T15:14:23.853Z,17.20
2022-11-28T15:16:54.556Z,17.42
2022-11-28T15:19:26.594Z,17.08
2022-11-28T15:21:54.908Z,18.67
2022-11-28T15:24:36.619Z,17.10
2022-11-28T15:27:08.870Z,15.73
2022-11-28T15:29:36.842Z,16.17
2022-11-28T15:32:04.903Z,16.42
2022-11-28T15:34:35.255Z,16.90
2022-11-28T15:37:15.007Z,17.52
2022-11-28T15:39:42.760Z,16.10
2022-11-28T15:42:20.997Z,19.50
2022-11-28T15:44:49.535Z,18.00
2022-11-28T15:47:21.177Z,17.80
2022-11-28T15:50:19.460Z,18.45
2022-11-28T15:53:15.031Z,18.05
2022-11-28T15:55:42.432Z,18.10
2022-11-28T15:58:15.012Z,18.05
2022-11-28T16:00:45.310Z,16.63
2022-11-28T16:03:23.287Z,19.25
2022-11-28T16:05:53.373Z,17.70
2022-11-28T16:08:48.881Z,18.15
2022-11-28T16:11:34.264Z,19.45
2022-11-28T16:14:11.086Z,18.60
2022-11-28T16:16:43.798Z,18.17
2022-11-28T16:19:36.740Z,19.60
2022-11-28T16:22:16.110Z,21.27
2022-11-28T16:24:52.267Z,18.08
2022-11-28T16:27:38.933Z,20.10
2022-11-28T16:33:56.747Z,21.60
2022-11-28T16:36:35.333Z,20.05
2022-11-28T16:39:12.234Z,20.00
2022-11-28T16:41:42.852Z,23.33
2022-11-28T16:44:14.828Z,23.13
2022-11-28T16:47:03.668Z,22.08
2022-11-28T16:49:38.872Z,23.00
2022-11-28T16:52:22.740Z,20.85
2022-11-28T16:54:54.942Z,23.08
2022-11-28T16:57:25.459Z,21.63
2022-11-28T16:59:59.024Z,23.42
2022-11-28T17:02:29.098Z,22.20
2022-11-28T17:04:57.920Z,20.75
2022-11-28T17:07:27.415Z,19.85
2022-11-28T17:09:55.397Z,22.77
2022-11-28T17:12:25.569Z,21.45
2022-11-28T17:14:59.438Z,23.23
2022-11-28T17:17:31.746Z,22.00
2022-11-28T17:20:02.820Z,18.98
2022-11-28T17:22:46.721Z,18.77
2022-11-28T17:27:45.895Z,21.45
2022-11-28T17:30:15.299Z,23.58
2022-11-28T17:32:43.968Z,24.52
2022-11-28T17:35:24.481Z,21.85
2022-11-28T17:37:53.535Z,24.58
2022-11-28T17:40:36.819Z,22.60
2022-11-28T17:43:04.451Z,21.50
2022-11-28T17:45:36.543Z,20.40
2022-11-28T17:48:04.088Z,21.80
2022-11-28T17:50:32.200Z,20.33
2022-11-28T17:52:59.650Z,19.50
2022-11-28T17:55:32.931Z,18.88
2022-11-28T17:58:00.412Z,20.00
2022-11-28T18:00:30.130Z,19.70
2022-11-28T18:02:59.370Z,21.60
2022-11-28T18:05:29.051Z,21.98
2022-11-28T18:07:57.541Z,22.95
2022-11-28T18:10:30.890Z,22.08
2022-11-28T18:12:59.383Z,25.47
2022-11-28T18:15:28.536Z,27.40
2022-11-28T18:17:59.569Z,27.15
2022-11-28T18:20:28.887Z,23.52
2022-11-28T18:22:58.620Z,24.40
2022-11-28T18:25:28.390Z,24.40
2022-11-28T18:27:56.653Z,23.20
2022-11-28T18:30:24.042Z,24.00
2022-11-28T18:32:53.726Z,29.58
2022-11-28T18:35:22.677Z,27.10
2022-11-28T18:37:50.685Z,28.00
2022-11-28T18:40:19.568Z,26.30
2022-11-28T18:42:47.240Z,26.33
2022-11-28T18:45:14.038Z,26.58
2022-11-28T18:47:41.197Z,27.13
2022-11-28T18:50:10.162Z,22.83
2022-11-28T18:52:37.268Z,21.27
2022-11-28T18:55:04.546Z,22.40
2022-11-28T18:57:34.645Z,23.00
2022-11-28T19:00:06.772Z,22.40
2022-11-28T19:02:35.508Z,22.10
2022-11-28T19:05:04.810Z,21.27
2022-11-28T19:07:33.760Z,22.23
2022-11-28T19:10:00.801Z,22.92
2022-11-28T19:12:28.695Z,24.25
2022-11-28T19:15:02.306Z,29.60
2022-11-28T19:17:30.598Z,27.80
2022-11-28T19:19:59.619Z,23.33
2022-11-28T19:22:29.119Z,23.88
2022-11-28T19:24:58.264Z,23.05
2022-11-28T19:27:26.706Z,23.27
2022-11-28T19:29:54.142Z,23.58
2022-11-28T19:32:24.566Z,19.10
2022-11-28T19:34:57.520Z,22.10
2022-11-28T19:37:25.742Z,22.08
2022-11-28T19:39:52.433Z,22.80
2022-11-28T19:42:20.243Z,22.35
2022-11-28T19:44:51.715Z,20.67
2022-11-28T19:47:18.277Z,21.58
2022-11-28T19:49:44.984Z,22.15
2022-11-28T19:52:15.850Z,23.48
2022-11-28T19:54:42.830Z,22.02
2022-11-28T19:57:11.276Z,26.30
2022-11-28T19:59:39.295Z,21.77
2022-11-28T20:02:07.801Z,21.73
2022-11-28T20:04:34.448Z,22.55
2022-11-28T20:07:03.558Z,23.17
2022-11-28T20:09:31.615Z,24.13
2022-11-28T20:12:01.008Z,22.90
2022-11-28T20:14:32.684Z,23.08
2022-11-28T20:17:01.769Z,21.85
2022-11-28T20:19:28.904Z,22.65
2022-11-28T20:21:57.799Z,22.63
2022-11-28T20:24:26.293Z,24.15
2022-11-28T20:26:57.170Z,25.17
2022-11-28T20:29:27.938Z,24.10
2022-11-28T20:31:57.584Z,25.48
2022-11-28T20:34:27.715Z,26.80
2022-11-28T20:36:59.637Z,26.02
2022-11-28T20:39:29.388Z,26.27
2022-11-28T20:42:07.553Z,24.30
2022-11-28T20:44:36.310Z,23.50
2022-11-28T20:47:05.555Z,23.10
2022-11-28T20:49:37.026Z,23.45
2022-11-28T20:52:05.686Z,22.38
2022-11-28T20:54:39.408Z,23.55
2022-11-28T20:57:21.365Z,23.20
2022-11-28T20:59:55.630Z,24.55
2022-11-28T21:02:24.722Z,23.35
2022-11-28T21:04:52.638Z,23.65
2022-11-28T21:07:20.497Z,24.30
2022-11-28T21:09:51.877Z,24.88
2022-11-28T21:12:21.283Z,23.30
2022-11-28T21:14:49.298Z,24.75
2022-11-28T21:17:17.174Z,24.30
2022-11-28T21:19:44.493Z,24.83
2022-11-28T21:22:12.610Z,22.60
2022-11-28T21:24:41.110Z,27.58
2022-11-28T21:27:09.714Z,20.10
2022-11-28T21:29:38.858Z,18.88
2022-11-28T21:32:07.443Z,18.85
2022-11-28T21:34:39.638Z,19.08
2022-11-28T21:37:07.523Z,22.03
2022-11-28T21:39:37.842Z,25.88
2022-11-28T21:42:06.772Z,24.90
2022-11-28T21:44:34.288Z,24.80
2022-11-28T21:47:05.690Z,22.20
2022-11-28T21:49:46.554Z,23.45
2022-11-28T21:52:22.631Z,20.33
2022-11-28T21:54:52.074Z,21.02
2022-11-28T21:57:20.726Z,18.35
2022-11-28T21:59:52.680Z,19.25
2022-11-28T22:02:19.919Z,18.45
2022-11-28T22:04:48.427Z,17.60
2022-11-28T22:07:18.741Z,18.33
2022-11-28T22:09:49.284Z,18.48
2022-11-28T22:12:18.436Z,18.23
2022-11-28T22:14:50.670Z,18.08
2022-11-28T22:17:17.940Z,17.40
2022-11-28T22:19:46.988Z,18.05
2022-11-28T22:22:14.817Z,18.15
2022-11-28T22:24:41.609Z,18.40
2022-11-28T22:27:11.879Z,17.17
2022-11-28T22:29:45.006Z,17.85
2022-11-28T22:34:44.920Z,17.38
2022-11-28T22:37:14.244Z,16.45
2022-11-28T22:39:41.379Z,18.02
2022-11-28T22:42:24.933Z,18.92
2022-11-28T22:44:54.765Z,17.23
2022-11-28T22:47:25.787Z,18.02
2022-11-28T22:49:52.671Z,17.88
2022-11-28T22:52:19.429Z,19.50
2022-11-28T22:54:53.007Z,18.52
2022-11-28T22:57:22.425Z,18.00
2022-11-28T22:59:51.719Z,17.55
2022-11-28T23:02:18.985Z,17.15
2022-11-28T23:04:46.982Z,17.42
2022-11-28T23:07:14.465Z,17.05
2022-11-28T23:09:41.451Z,17.52
2022-11-28T23:12:10.627Z,17.08
2022-11-28T23:14:38.770Z,16.75
2022-11-28T23:17:07.969Z,16.48
2022-11-28T23:19:37.352Z,16.50
2022-11-28T23:22:06.400Z,15.82
2022-11-28T23:24:34.603Z,17.52
2022-11-28T23:27:04.260Z,16.25
2022-11-28T23:29:32.277Z,17.02
2022-11-28T23:32:00.456Z,16.13
2022-11-28T23:34:30.764Z,15.70
2022-11-28T23:37:01.769Z,16.98
2022-11-28T23:39:30.650Z,16.27
2022-11-28T23:42:07.937Z,16.88
2022-11-28T23:44:36.361Z,17.60
2022-11-28T23:47:04.694Z,17.70
2022-11-28T23:49:32.201Z,16.60
2022-11-28T23:52:04.629Z,17.23
2022-11-28T23:54:42.013Z,16.45
2022-11-28T23:57:27.636Z,17.75
